Time;durP1;ratioP1;P1;durP2;ratioP2;P2;SDS_P1;SDS_P2;PMS_P1;PMS_P2;Temp;Humidity;BMP_temperature;BMP_pressure;BME280_temperature;BME280_humidity;BME280_pressure;Samples;Min_cycle;Max_cycle;Signal;HPM_P1;HPM_P2
2023/07/31 00:02:00;;;;;;;3.20;3.10;;;;;;;;;;5029110;28;20262;-66
2023/07/31 00:04:26;;;;;;;3.03;2.83;;;;;;;;;;5029285;28;20231;-67
2023/07/31 00:06:53;;;;;;;2.75;2.50;;;;;;;;;;5028663;28;20196;-66
2023/07/31 00:09:19;;;;;;;2.80;2.70;;;;;;;;;;5029524;28;20247;-69
2023/07/31 00:11:47;;;;;;;3.17;2.97;;;;;;;;;;5029676;28;20195;-66
2023/07/31 00:14:14;;;;;;;3.10;2.90;;;;;;;;;;5029423;28;20309;-68
2023/07/31 00:16:40;;;;;;;3.25;3.05;;;;;;;;;;5006680;28;20658;-60
2023/07/31 00:19:06;;;;;;;2.78;2.60;;;;;;;;;;5029057;28;20291;-66
2023/07/31 00:21:33;;;;;;;3.33;3.13;;;;;;;;;;5028592;28;20254;-63
2023/07/31 00:23:59;;;;;;;2.97;2.78;;;;;;;;;;5024699;28;20772;-67
2023/07/31 00:26:26;;;;;;;3.63;3.42;;;;;;;;;;5014914;28;20250;-65
2023/07/31 00:28:54;;;;;;;6.00;5.60;;;;;;;;;;5024812;28;20640;-66
2023/07/31 00:31:20;;;;;;;5.40;5.05;;;;;;;;;;5001767;28;20204;-67
2023/07/31 00:33:46;;;;;;;5.85;5.05;;;;;;;;;;5020187;28;20317;-65
2023/07/31 00:36:13;;;;;;;3.55;3.35;;;;;;;;;;5027785;28;20199;-65
2023/07/31 00:38:39;;;;;;;4.47;4.18;;;;;;;;;;5028815;28;20212;-66
2023/07/31 00:41:06;;;;;;;3.90;3.63;;;;;;;;;;5020376;28;20674;-62
2023/07/31 00:43:32;;;;;;;4.05;3.75;;;;;;;;;;4999779;28;20761;-65
2023/07/31 00:46:00;;;;;;;4.05;3.80;;;;;;;;;;5025539;28;20569;-63
2023/07/31 00:48:27;;;;;;;3.90;3.67;;;;;;;;;;5018150;28;20203;-67
2023/07/31 00:50:53;;;;;;;4.10;3.80;;;;;;;;;;5022473;28;20212;-67
2023/07/31 00:53:20;;;;;;;4.82;4.53;;;;;;;;;;5027784;28;20219;-66
2023/07/31 00:55:46;;;;;;;4.85;4.65;;;;;;;;;;5028030;28;20231;-65
2023/07/31 00:58:13;;;;;;;5.25;4.95;;;;;;;;;;5028066;28;20670;-65
2023/07/31 01:00:39;;;;;;;7.55;6.95;;;;;;;;;;5025630;28;20235;-61
2023/07/31 01:03:07;;;;;;;8.07;7.55;;;;;;;;;;4979419;28;22306;-62
2023/07/31 01:05:37;;;;;;;7.05;6.65;;;;;;;;;;5012797;28;20232;-67
2023/07/31 01:08:09;;;;;;;8.23;7.63;;;;;;;;;;5027398;28;20211;-66
2023/07/31 01:10:42;;;;;;;8.00;7.60;;;;;;;;;;5017982;28;20218;-65
2023/07/31 01:13:09;;;;;;;9.27;8.52;;;;;;;;;;5021397;28;20755;-66
2023/07/31 01:15:35;;;;;;;9.80;9.10;;;;;;;;;;5024432;28;20638;-66
2023/07/31 01:18:02;;;;;;;12.55;11.45;;;;;;;;;;5012613;28;20368;-62
2023/07/31 01:20:32;;;;;;;10.45;9.77;;;;;;;21.80;nan;94772.03;5007529;28;20756;-67
2023/07/31 01:23:17;;;;;;;12.02;10.85;;;;;;;;;;5026116;28;20255;-68
2023/07/31 01:26:01;;;;;;;11.35;10.48;;;;;;;;;;5024484;28;20254;-66
2023/07/31 01:28:34;;;;;;;10.75;9.95;;;;;;;;;;5026220;28;20210;-66
2023/07/31 01:31:01;;;;;;;11.00;10.27;;;;;;;;;;5027383;28;20858;-66
2023/07/31 01:33:28;;;;;;;12.55;11.45;;;;;;;;;;5023645;28;20681;-61
2023/07/31 01:35:55;;;;;;;11.00;10.30;;;;;;;;;;5026363;28;20687;-66
2023/07/31 01:38:21;;;;;;;12.70;11.65;;;;;;;;;;5026600;28;20743;-65
2023/07/31 01:40:51;;;;;;;13.02;11.88;;;;;;;;;;5028423;28;20203;-65
2023/07/31 01:43:18;;;;;;;13.23;12.15;;;;;;;;;;5026133;28;20275;-69
2023/07/31 01:45:46;;;;;;;13.18;12.10;;;;;;;;;;5027355;28;20265;-64
2023/07/31 01:48:12;;;;;;;13.80;12.55;;;;;;;;;;5026982;28;20210;-66
2023/07/31 01:50:39;;;;;;;13.70;12.68;;;;;;;;;;5025752;28;20208;-66
2023/07/31 01:53:05;;;;;;;13.93;12.75;;;;;;;;;;5025933;28;20227;-67
2023/07/31 01:55:31;;;;;;;15.80;14.25;;;;;;;;;;5026863;28;20330;-67
2023/07/31 01:57:58;;;;;;;15.23;13.95;;;;;;;;;;5026946;28;20295;-68
2023/07/31 02:00:24;;;;;;;16.02;14.52;;;;;;;;;;5028176;28;20211;-67
2023/07/31 02:02:52;;;;;;;14.68;13.57;;;;;;;;;;5026407;28;20221;-63
2023/07/31 02:05:19;;;;;;;16.77;15.52;;;;;;;;;;5026406;28;20250;-66
2023/07/31 02:07:45;;;;;;;17.38;15.98;;;;;;;;;;5025932;28;20629;-68
2023/07/31 02:10:12;;;;;;;17.42;16.02;;;;;;;;;;5025839;28;20203;-67
2023/07/31 02:12:38;;;;;;;17.42;15.85;;;;;;;;;;5026433;28;20250;-64
2023/07/31 02:15:05;;;;;;;20.77;16.25;;;;;;;;;;5025803;28;20199;-67
2023/07/31 02:17:31;;;;;;;17.58;16.10;;;;;;;;;;5022412;28;20281;-66
2023/07/31 02:19:59;;;;;;;18.50;17.05;;;;;;;;;;5025511;28;20282;-66
2023/07/31 02:22:25;;;;;;;18.10;16.13;;;;;;;;;;5024283;28;21682;-67
2023/07/31 02:24:52;;;;;;;18.42;16.73;;;;;;;;;;5024939;28;20447;-64
2023/07/31 02:27:18;;;;;;;18.75;16.83;;;;;;;;;;5024357;28;20603;-67
2023/07/31 02:29:45;;;;;;;18.13;16.40;;;;;;;;;;5024111;28;20896;-66
2023/07/31 02:32:11;;;;;;;19.27;17.48;;;;;;;;;;5025080;28;20257;-66
2023/07/31 02:34:37;;;;;;;18.20;16.65;;;;;;;;;;5025209;28;20265;-65
2023/07/31 02:37:06;;;;;;;18.85;17.13;;;;;;;;;;5024812;28;20258;-66
2023/07/31 02:39:32;;;;;;;19.23;17.38;;;;;;;;;;5025180;28;20235;-68
2023/07/31 02:42:00;;;;;;;19.60;18.00;;;;;;;;;;5023306;28;20298;-68
2023/07/31 02:44:26;;;;;;;19.10;17.40;;;;;;;;;;5023205;28;20218;-66
2023/07/31 02:46:53;;;;;;;18.10;16.55;;;;;;;;;;5025870;28;20206;-65
2023/07/31 02:49:19;;;;;;;19.55;17.80;;;;;;;;;;5026792;28;20269;-68
2023/07/31 02:51:46;;;;;;;17.88;16.48;;;;;;;;;;5025868;28;20250;-68
2023/07/31 02:54:13;;;;;;;18.17;16.67;;;;;;;;;;5026208;28;20265;-69
2023/07/31 02:56:40;;;;;;;18.58;17.17;;;;;;;;;;5026868;28;20204;-62
2023/07/31 02:59:06;;;;;;;19.52;17.92;;;;;;;;;;5027210;28;20203;-70
2023/07/31 03:01:33;;;;;;;19.65;18.05;;;;;;;;;;5027194;28;20257;-66
2023/07/31 03:03:59;;;;;;;20.45;18.63;;;;;;;;;;5028075;28;20686;-63
2023/07/31 03:06:27;;;;;;;18.70;16.80;;;;;;;;;;5027543;28;20249;-66
2023/07/31 03:08:53;;;;;;;19.77;18.25;;;;;;;;;;5027727;28;20553;-65
2023/07/31 03:11:21;;;;;;;19.70;17.83;;;;;;;;;;5027002;28;20246;-70
2023/07/31 03:13:47;;;;;;;20.00;18.20;;;;;;;;;;5026936;28;20258;-69
2023/07/31 03:16:14;;;;;;;19.52;17.85;;;;;;;;;;5026511;28;20716;-67
2023/07/31 03:18:40;;;;;;;18.75;17.30;;;;;;;;;;5026620;28;20635;-68
2023/07/31 03:21:07;;;;;;;18.50;17.00;;;;;;;;;;5027449;28;20204;-68
2023/07/31 03:23:33;;;;;;;19.73;17.80;;;;;;;;;;5026070;28;20219;-68
2023/07/31 03:26:00;;;;;;;19.15;17.65;;;;;;;;;;5027570;28;20204;-68
2023/07/31 03:28:28;;;;;;;20.00;18.30;;;;;;;;;;5034011;28;20682;-68
2023/07/31 03:30:54;;;;;;;21.30;19.40;;;;;;;;;;5027064;28;20313;-67
2023/07/31 03:33:21;;;;;;;19.67;17.98;;;;;;;;;;5029181;28;20208;-68
2023/07/31 03:35:47;;;;;;;20.95;18.88;;;;;;;;;;5031981;28;20199;-68
2023/07/31 03:38:14;;;;;;;20.80;18.73;;;;;;;;;;5030814;28;20215;-69
2023/07/31 03:40:40;;;;;;;19.83;18.13;;;;;;;;;;5029576;28;20678;-67
2023/07/31 03:43:07;;;;;;;19.70;17.90;;;;;;;;;;5029989;28;20709;-68
2023/07/31 03:45:34;;;;;;;21.15;19.25;;;;;;;;;;5030708;28;20199;-69
2023/07/31 03:48:01;;;;;;;22.50;20.10;;;;;;;;;;5028828;28;20768;-67
2023/07/31 03:50:27;;;;;;;20.00;18.27;;;;;;;;;;5030109;28;20250;-67
2023/07/31 03:52:54;;;;;;;19.67;17.88;;;;;;;;;;5029562;28;20634;-66
2023/07/31 03:55:21;;;;;;;20.63;18.83;;;;;;;;;;5029970;28;20262;-69
2023/07/31 03:57:48;;;;;;;20.77;18.85;;;;;;;;;;5030279;28;20605;-67
2023/07/31 04:00:14;;;;;;;21.00;19.00;;;;;;;;;;5029911;28;20239;-68
2023/07/31 04:02:42;;;;;;;20.48;18.60;;;;;;;;;;5029688;28;20305;-64
2023/07/31 04:05:09;;;;;;;22.00;19.92;;;;;;;;;;5031032;28;20239;-68
2023/07/31 04:07:37;;;;;;;22.45;20.33;;;;;;;;;;5029689;28;20689;-67
2023/07/31 04:10:04;;;;;;;21.75;19.80;;;;;;;;;;5029780;28;20211;-67
2023/07/31 04:12:31;;;;;;;21.40;19.45;;;;;;;;;;5029675;28;20887;-68
2023/07/31 04:14:57;;;;;;;21.77;19.85;;;;;;;;;;5031045;28;20273;-68
2023/07/31 04:17:24;;;;;;;23.13;20.83;;;;;;;;;;5029708;28;20285;-68
2023/07/31 04:19:51;;;;;;;23.20;20.52;;;;;;;;;;5029835;28;20253;-67
2023/07/31 04:22:18;;;;;;;22.88;20.70;;;;;;;;;;5029423;28;20204;-67
2023/07/31 04:24:44;;;;;;;21.15;19.05;;;;;;;;;;5029862;28;20223;-68
2023/07/31 04:27:11;;;;;;;20.83;18.73;;;;;;;;;;5029531;28;20227;-67
2023/07/31 04:29:39;;;;;;;21.73;19.52;;;;;;;;;;5029802;28;20294;-68
2023/07/31 04:32:06;;;;;;;22.17;19.98;;;;;;;;;;5029563;28;20211;-67
2023/07/31 04:34:32;;;;;;;21.67;19.67;;;;;;;;;;5030189;28;20199;-63
2023/07/31 04:37:00;;;;;;;21.15;19.23;;;;;;;;;;5029824;28;20254;-68
2023/07/31 04:39:27;;;;;;;20.02;18.20;;;;;;;;;;5029659;28;20200;-63
2023/07/31 04:41:53;;;;;;;21.25;19.17;;;;;;;;;;5028944;28;20272;-71
2023/07/31 04:44:19;;;;;;;21.17;19.13;;;;;;;;;;5029703;28;20676;-68
2023/07/31 04:46:46;;;;;;;21.40;19.40;;;;;;;;;;5029111;28;20240;-69
2023/07/31 04:49:12;;;;;;;19.88;17.98;;;;;;;;;;5029361;28;20231;-66
2023/07/31 04:51:39;;;;;;;19.83;17.95;;;;;;;;;;5029042;28;20281;-70
2023/07/31 04:54:07;;;;;;;19.02;17.38;;;;;;;;;;5029386;28;20249;-67
2023/07/31 04:56:33;;;;;;;18.73;17.05;;;;;;;;;;5028391;28;20617;-65
2023/07/31 04:59:00;;;;;;;17.67;16.02;;;;;;;;;;5028929;28;20662;-65
2023/07/31 05:01:26;;;;;;;18.00;16.40;;;;;;;;;;5028249;28;20270;-69
2023/07/31 05:03:52;;;;;;;18.02;16.27;;;;;;;;;;5029270;28;20239;-70
2023/07/31 05:06:20;;;;;;;17.02;15.48;;;;;;;;;;5028458;28;20196;-70
2023/07/31 05:08:46;;;;;;;15.43;13.82;;;;;;;;;;5028756;28;20214;-68
2023/07/31 05:11:14;;;;;;;14.63;13.40;;;;;;;;;;5028316;28;20203;-65
2023/07/31 05:13:41;;;;;;;15.43;13.93;;;;;;;;;;5028763;28;20269;-66
2023/07/31 05:16:07;;;;;;;15.48;14.38;;;;;;;;;;5028840;28;20693;-72
2023/07/31 05:18:33;;;;;;;15.02;13.60;;;;;;;;;;5028858;28;20231;-69
2023/07/31 05:21:00;;;;;;;16.02;14.27;;;;;;;;;;5027946;28;20658;-69
2023/07/31 05:23:26;;;;;;;14.25;13.35;;;;;;;;;;5028795;28;20310;-68
2023/07/31 05:25:53;;;;;;;13.90;12.95;;;;;;;;;;5028435;28;20221;-69
2023/07/31 05:28:22;;;;;;;14.85;13.70;;;;;;;;;;5028018;28;20204;-69
2023/07/31 05:30:48;;;;;;;14.35;13.02;;;;;;;;;;5028229;28;20269;-68
2023/07/31 05:33:15;;;;;;;12.57;11.68;;;;;;;;;;5028413;28;20200;-64
2023/07/31 05:35:41;;;;;;;13.70;12.60;;;;;;;;;;5028211;28;20199;-69
2023/07/31 05:38:08;;;;;;;11.65;10.63;;;;;;;;;;5028166;28;20199;-68
2023/07/31 05:40:34;;;;;;;10.55;9.85;;;;;;;;;;5028339;28;20203;-67
2023/07/31 05:43:00;;;;;;;10.25;9.60;;;;;;;;;;5027886;28;20208;-67
2023/07/31 05:45:28;;;;;;;10.52;9.73;;;;;;;;;;5028553;28;20636;-69
2023/07/31 05:47:55;;;;;;;10.02;9.25;;;;;;;;;;5027938;28;20203;-68
2023/07/31 05:50:21;;;;;;;9.05;8.45;;;;;;;;;;5027695;28;20266;-67
2023/07/31 05:52:48;;;;;;;9.20;8.70;;;;;;;;;;5027228;28;20274;-67
2023/07/31 05:55:14;;;;;;;8.48;7.97;;;;;;;;;;5028075;28;20824;-68
2023/07/31 05:57:41;;;;;;;7.75;7.35;;;;;;;;;;5028085;28;20281;-68
2023/07/31 06:00:08;;;;;;;11.55;7.70;;;;;;;;;;5028450;28;20239;-68
2023/07/31 06:02:36;;;;;;;7.57;6.97;;;;;;;;;;5029348;28;20220;-65
2023/07/31 06:05:03;;;;;;;7.97;7.45;;;;;;;;;;5028375;28;20289;-71
2023/07/31 06:07:30;;;;;;;7.80;7.20;;;;;;;;;;5028699;28;20219;-66
2023/07/31 06:10:01;;;;;;;7.68;6.15;;;;;;;;;;5030939;28;20211;-70
2023/07/31 06:12:27;;;;;;;6.85;6.45;;;;;;;;;;5032409;28;20207;-69
2023/07/31 06:14:54;;;;;;;6.07;5.55;;;;;;;;;;5032603;28;20200;-68
2023/07/31 06:17:21;;;;;;;4.95;4.68;;;;;;;;;;5031901;28;20216;-65
2023/07/31 06:19:50;;;;;;;5.47;5.18;;;;;;;;;;5031955;28;20717;-68
2023/07/31 06:22:16;;;;;;;5.18;4.78;;;;;;;;;;5028528;28;20589;-68
2023/07/31 06:24:43;;;;;;;5.93;5.20;;;;;;;;;;5027618;28;20223;-68
2023/07/31 06:27:09;;;;;;;4.68;4.38;;;;;;;;;;5027442;28;20203;-69
2023/07/31 06:29:36;;;;;;;5.38;4.93;;;;;;;;;;5027567;28;20203;-70
2023/07/31 06:32:04;;;;;;;5.53;5.07;;;;;;;;;;5027648;28;20199;-71
2023/07/31 06:34:31;;;;;;;5.63;4.95;;;;;;;;;;5027701;28;20285;-68
2023/07/31 06:36:58;;;;;;;4.25;3.97;;;;;;;;;;5027541;28;20290;-70
2023/07/31 06:39:25;;;;;;;5.35;4.93;;;;;;;;;;5027572;28;20253;-70
2023/07/31 06:41:51;;;;;;;5.18;4.78;;;;;;;;;;5026579;28;20239;-71
2023/07/31 06:44:18;;;;;;;3.90;3.70;;;;;;;;;;5027974;28;20655;-71
2023/07/31 06:46:44;;;;;;;4.57;4.28;;;;;;;;;;5026744;28;20242;-69
2023/07/31 06:49:10;;;;;;;6.15;3.85;;;;;;;;;;5027206;28;20204;-70
2023/07/31 06:51:38;;;;;;;4.07;3.78;;;;;;;;;;5026071;28;20281;-72
2023/07/31 06:54:06;;;;;;;4.82;4.35;;;;;;;;;;5027177;28;20222;-68
2023/07/31 06:56:32;;;;;;;6.20;3.97;;;;;;;;;;5027438;28;20200;-69
2023/07/31 06:58:58;;;;;;;6.38;3.58;;;;;;;;;;5026831;28;20239;-71
2023/07/31 07:01:25;;;;;;;3.78;3.58;;;;;;;;;;5026258;28;20208;-70
2023/07/31 07:03:52;;;;;;;6.07;4.38;;;;;;;;;;5026419;28;20361;-69
2023/07/31 07:06:18;;;;;;;6.40;6.00;;;;;;;;;;5026119;28;20204;-71
2023/07/31 07:08:45;;;;;;;6.35;5.95;;;;;;;;;;5026792;28;20199;-71
2023/07/31 07:11:12;;;;;;;4.63;4.32;;;;;;;;;;5025145;28;20258;-68
2023/07/31 07:13:39;;;;;;;4.88;4.35;;;;;;;;;;5027058;28;20199;-65
2023/07/31 07:16:05;;;;;;;3.97;3.75;;;;;;;;;;5026927;28;20642;-69
2023/07/31 07:18:32;;;;;;;3.50;3.30;;;;;;;;;;5025604;28;20656;-68
2023/07/31 07:20:58;;;;;;;2.90;2.75;;;;;;;;;;5026642;28;21382;-71
2023/07/31 07:23:26;;;;;;;3.53;3.00;;;;;;;;;;5026766;28;20766;-69
2023/07/31 07:25:52;;;;;;;3.45;3.15;;;;;;;;;;5026710;28;20218;-70
2023/07/31 07:28:20;;;;;;;3.42;3.25;;;;;;;;;;5026831;28;20637;-71
2023/07/31 07:30:51;;;;;;;3.30;3.10;;;;;;;;;;5025254;28;20200;-71
2023/07/31 07:33:18;;;;;;;3.60;2.65;;;;;;;;;;5026690;28;20200;-70
2023/07/31 07:35:44;;;;;;;3.70;3.08;;;;;;;;;;5027771;28;20257;-70
2023/07/31 07:38:10;;;;;;;3.22;2.92;;;;;;;;;;5026644;28;20239;-71
2023/07/31 07:40:39;;;;;;;4.85;3.70;;;;;;;;;;5026151;28;20200;-68
2023/07/31 07:43:05;;;;;;;3.40;3.10;;;;;;;;;;5025463;28;20235;-69
2023/07/31 07:45:33;;;;;;;3.28;3.08;;;;;;;;;;5023292;28;20219;-70
2023/07/31 07:48:00;;;;;;;3.35;3.15;;;;;;;;;;5026281;28;20207;-71
2023/07/31 07:50:26;;;;;;;3.72;2.97;;;;;;;;;;5026289;28;20216;-70
2023/07/31 07:52:53;;;;;;;2.85;2.65;;;;;;;;;;5026057;28;20235;-70
2023/07/31 07:55:19;;;;;;;2.70;2.53;;;;;;;;;;5026465;28;20227;-72
2023/07/31 07:57:46;;;;;;;3.75;2.80;;;;;;;;;;5025123;28;20710;-69
2023/07/31 08:00:13;;;;;;;5.20;2.92;;;;;;;;;;5026234;28;20196;-70
2023/07/31 08:02:41;;;;;;;4.40;2.80;;;;;;;;;;5025906;28;20682;-72
2023/07/31 08:05:08;;;;;;;2.95;2.75;;;;;;;;;;5026710;28;20239;-72
2023/07/31 08:07:34;;;;;;;4.32;2.53;;;;;;;;;;5023066;28;20214;-64
2023/07/31 08:10:00;;;;;;;3.50;3.40;;;;;;;;;;5025267;28;20232;-68
2023/07/31 08:12:27;;;;;;;3.88;3.67;;;;;;;;;;5025774;28;20250;-71
2023/07/31 08:14:53;;;;;;;3.55;3.35;;;;;;;;;;5023638;28;20231;-68
2023/07/31 08:17:20;;;;;;;4.13;3.92;;;;;;;;;;5024564;28;20220;-65
2023/07/31 08:19:48;;;;;;;3.95;2.92;;;;;;;;;;5026096;28;20203;-72
2023/07/31 08:22:14;;;;;;;6.10;5.50;;;;;;;;;;5027359;28;20297;-67
2023/07/31 08:24:40;;;;;;;11.10;5.90;;;;;;;;;;5025999;28;20967;-66
2023/07/31 08:27:07;;;;;;;4.53;4.22;;;;;;;;;;5027766;28;20203;-68
2023/07/31 08:29:33;;;;;;;4.20;3.45;;;;;;;;;;5028349;28;20231;-69
2023/07/31 08:32:00;;;;;;;3.80;3.42;;;;;;;;;;5029051;28;20289;-72
2023/07/31 08:34:26;;;;;;;3.10;2.90;;;;;;;;;;5029750;28;20192;-70
2023/07/31 08:36:54;;;;;;;5.90;5.32;;;;;;;;;;5029894;28;20207;-69
2023/07/31 08:39:20;;;;;;;6.18;5.65;;;;;;;;;;5029826;28;20195;-69
2023/07/31 08:41:48;;;;;;;7.07;6.00;;;;;;;;;;5029496;28;20235;-73
2023/07/31 08:44:14;;;;;;;5.13;4.72;;;;;;;;;;5029086;28;20251;-72
2023/07/31 08:46:41;;;;;;;5.18;4.72;;;;;;;;;;5027917;28;20207;-69
2023/07/31 08:49:08;;;;;;;14.40;11.27;;;;;;;;;;5029140;28;20303;-67
2023/07/31 08:51:35;;;;;;;5.43;5.13;;;;;;;;;;5028897;28;20743;-67
2023/07/31 08:54:03;;;;;;;5.35;4.95;;;;;;;;;;5028193;28;20331;-66
2023/07/31 08:56:30;;;;;;;5.78;3.38;;;;;;;;;;5028157;28;20641;-66
2023/07/31 08:58:56;;;;;;;2.85;2.75;;;;;;;;;;5029076;28;20646;-66
2023/07/31 09:01:24;;;;;;;2.80;2.70;;;;;;;;;;5028773;28;20235;-66
2023/07/31 09:03:52;;;;;;;3.53;3.25;;;;;;;;;;5028621;28;20683;-67
2023/07/31 09:06:19;;;;;;;3.53;3.00;;;;;;;;;;5028612;28;20521;-66
2023/07/31 09:08:46;;;;;;;2.78;2.58;;;;;;;;;;5028706;28;20196;-67
2023/07/31 09:11:14;;;;;;;2.58;2.25;;;;;;;;;;5029322;28;20235;-67
2023/07/31 09:13:41;;;;;;;2.78;2.67;;;;;;;;;;5027991;28;20894;-67
2023/07/31 09:16:09;;;;;;;3.03;2.92;;;;;;;;;;5028824;28;20199;-67
2023/07/31 09:18:53;;;;;;;4.50;2.80;;;;;;;;;;5028625;28;20200;-68
2023/07/31 09:21:19;;;;;;;2.75;2.55;;;;;;;;;;5028474;28;20610;-66
2023/07/31 09:23:47;;;;;;;4.00;3.15;;;;;;;;;;5027532;28;20250;-64
2023/07/31 09:26:29;;;;;;;3.92;3.47;;;;;;;;;;5027923;28;20226;-67
2023/07/31 09:28:55;;;;;;;7.55;3.40;;;;;;;;;;5028128;28;20748;-67
2023/07/31 09:31:32;;;;;;;6.30;3.75;;;;;;;;;;5027764;28;20289;-66
2023/07/31 09:34:00;;;;;;;2.67;2.58;;;;;;;;;;5024270;28;20258;-66
2023/07/31 09:36:29;;;;;;;3.53;2.80;;;;;;;;;;5026647;28;20712;-66
2023/07/31 09:38:56;;;;;;;2.92;2.65;;;;;;;;;;5027806;28;20297;-66
2023/07/31 09:41:23;;;;;;;2.92;2.83;;;;;;;;;;5027718;28;20250;-64
2023/07/31 09:43:54;;;;;;;2.90;2.70;;;;;;;;;;5027930;28;20211;-66
2023/07/31 09:46:21;;;;;;;2.70;2.60;;;;;;;;;;5028460;28;20223;-65
2023/07/31 09:48:47;;;;;;;2.40;2.13;;;;;;;;;;5028394;28;20266;-65
2023/07/31 09:51:14;;;;;;;2.88;2.75;;;;;;;;;;5028673;28;20200;-65
2023/07/31 09:53:40;;;;;;;3.05;2.85;;;;;;;;;;5028724;28;20219;-65
2023/07/31 09:56:07;;;;;;;4.70;2.65;;;;;;;;;;5028341;28;20654;-65
2023/07/31 09:58:35;;;;;;;2.92;2.60;;;;;;;;;;5026295;28;20204;-64
2023/07/31 10:01:02;;;;;;;2.95;2.72;;;;;;;;;;5027879;28;20231;-64
2023/07/31 10:03:30;;;;;;;2.75;2.60;;;;;;;;;;5027872;28;20274;-64
2023/07/31 10:05:57;;;;;;;2.88;2.42;;;;;;;;;;5026312;28;20258;-64
2023/07/31 10:08:29;;;;;;;2.47;2.38;;;;;;;;;;5028275;28;20242;-62
2023/07/31 10:10:56;;;;;;;2.78;2.58;;;;;;;;;;5027170;28;20670;-63
2023/07/31 10:13:22;;;;;;;2.33;2.13;;;;;;;;;;5026484;28;20207;-64
2023/07/31 10:15:51;;;;;;;2.60;2.15;;;;;;;;;;5025573;28;20195;-63
2023/07/31 10:18:19;;;;;;;1.80;1.75;;;;;;;;;;5026166;28;20302;-62
2023/07/31 10:20:46;;;;;;;2.75;2.50;;;;;;;;;;5025114;28;20200;-64
2023/07/31 10:23:13;;;;;;;2.42;2.22;;;;;;;;;;5025876;28;20199;-63
2023/07/31 10:25:40;;;;;;;2.30;2.10;;;;;;;;;;5025365;28;20305;-63
2023/07/31 10:28:06;;;;;;;2.95;2.75;;;;;;;;;;5025781;28;20701;-63
2023/07/31 10:30:34;;;;;;;2.20;2.10;;;;;;;;;;5024349;28;20203;-64
2023/07/31 10:33:03;;;;;;;2.92;2.03;;;;;;;;;;5027421;28;20199;-65
2023/07/31 10:35:30;;;;;;;2.92;2.45;;;;;;;;;;5026200;28;20234;-65
2023/07/31 10:37:56;;;;;;;2.10;2.00;;;;;;;;;;5025703;28;20305;-65
2023/07/31 10:40:25;;;;;;;1.90;1.80;;;;;;;;;;5025517;28;20203;-65
2023/07/31 10:42:52;;;;;;;4.03;1.90;;;;;;;;;;5024186;28;20700;-66
2023/07/31 10:45:25;;;;;;;3.70;2.17;;;;;;;;;;5024896;28;20256;-65
2023/07/31 10:47:58;;;;;;;2.00;1.90;;;;;;;;;;5025232;28;20253;-65
2023/07/31 10:50:26;;;;;;;2.20;2.10;;;;;;;;;;5025927;28;20196;-63
2023/07/31 10:52:53;;;;;;;1.92;1.83;;;;;;;;;;5026294;28;20568;-65
2023/07/31 10:55:30;;;;;;;2.35;2.25;;;;;;;;;;5027302;28;20223;-64
2023/07/31 10:57:57;;;;;;;2.28;2.17;;;;;;;;;;5027006;28;20210;-65
2023/07/31 11:00:25;;;;;;;3.42;2.15;;;;;;;;;;5027143;28;20287;-64
2023/07/31 11:03:02;;;;;;;2.03;1.92;;;;;;;;;;5026485;28;20639;-65
2023/07/31 11:05:43;;;;;;;1.85;1.70;;;;;;;;;;5027073;28;20309;-63
2023/07/31 11:08:16;;;;;;;2.00;1.90;;;;;;;;;;5027139;28;20261;-64
2023/07/31 11:10:43;;;;;;;2.05;1.83;;;;;;;;;;5026496;28;20203;-64
2023/07/31 11:13:09;;;;;;;2.75;1.70;;;;;;;;;;5026961;28;20289;-63
2023/07/31 11:15:36;;;;;;;1.75;1.65;;;;;;;;;;5026733;28;20195;-64
2023/07/31 11:18:05;;;;;;;2.80;2.50;;;;;;;;;;5026954;28;20223;-64
2023/07/31 11:20:31;;;;;;;3.75;1.88;;;;;;;;;;5026481;28;20592;-63
2023/07/31 11:23:00;;;;;;;2.55;2.35;;;;;;;;;;5025672;28;20665;-64
2023/07/31 11:25:27;;;;;;;1.88;1.77;;;;;;;;;;5026772;28;20254;-64
2023/07/31 11:27:54;;;;;;;2.03;1.92;;;;;;;;;;5026173;28;20286;-64
2023/07/31 11:30:20;;;;;;;1.83;1.65;;;;;;;;;;5026683;28;20203;-64
2023/07/31 11:32:47;;;;;;;2.20;2.10;;;;;;;;;;5026767;28;20207;-63
2023/07/31 11:35:13;;;;;;;5.07;2.33;;;;;;;;;;5026692;28;20257;-64
2023/07/31 11:37:40;;;;;;;7.10;2.58;;;;;;;;;;5026619;28;20751;-64
2023/07/31 11:40:09;;;;;;;2.60;2.50;;;;;;;;;;5026268;28;20218;-64
2023/07/31 11:42:36;;;;;;;3.00;2.80;;;;;;;;;;5025802;28;20291;-65
2023/07/31 11:45:03;;;;;;;2.65;2.55;;;;;;;;;;5026062;28;20223;-63
2023/07/31 11:47:31;;;;;;;2.95;2.53;;;;;;;;;;5026620;28;20227;-63
2023/07/31 11:49:58;;;;;;;3.40;2.33;;;;;;;;;;5025900;28;20204;-63
2023/07/31 11:52:25;;;;;;;3.03;2.83;;;;;;;;;;5025987;28;20740;-64
2023/07/31 11:54:52;;;;;;;2.83;2.65;;;;;;;;;;5029554;28;20223;-64
2023/07/31 11:57:20;;;;;;;3.13;3.03;;;;;;;;;;5030155;28;20262;-64
2023/07/31 11:59:47;;;;;;;3.10;3.00;;;;;;;;;;5030060;28;20207;-63
2023/07/31 12:02:14;;;;;;;4.45;4.15;;;;;;;;;;5030214;28;20211;-65
2023/07/31 12:04:40;;;;;;;4.22;3.92;;;;;;;;;;5029777;28;20795;-64
2023/07/31 12:07:07;;;;;;;4.32;4.13;;;;;;;;;;5030106;28;20219;-64
2023/07/31 12:09:33;;;;;;;4.00;3.80;;;;;;;;;;5029614;28;20685;-65
2023/07/31 12:11:59;;;;;;;7.65;4.88;;;;;;;;;;5029337;28;20200;-66
2023/07/31 12:14:29;;;;;;;4.85;4.45;;;;;;;;;;5027325;28;20207;-65
2023/07/31 12:16:55;;;;;;;7.78;5.43;;;;;;;;;;5028022;28;20196;-64
2023/07/31 12:19:22;;;;;;;5.43;5.13;;;;;;;;;;5027940;28;20294;-64
2023/07/31 12:21:48;;;;;;;5.35;5.05;;;;;;;;;;5027664;28;20235;-64
2023/07/31 12:24:15;;;;;;;5.03;4.75;;;;;;;;;;5028242;28;20231;-64
2023/07/31 12:26:46;;;;;;;4.22;4.03;;;;;;;;;;5027955;28;20227;-65
2023/07/31 12:29:12;;;;;;;4.80;4.50;;;;;;;;;;5027654;28;20199;-65
2023/07/31 12:31:41;;;;;;;5.45;4.88;;;;;;;;;;5028053;28;20231;-64
2023/07/31 12:34:16;;;;;;;5.53;4.97;;;;;;;;;;5028655;28;20208;-63
2023/07/31 12:36:43;;;;;;;4.53;4.15;;;;;;;;;;5027985;28;20206;-63
2023/07/31 12:39:09;;;;;;;5.38;5.05;;;;;;;;;;5027548;28;20204;-62
2023/07/31 12:41:36;;;;;;;5.45;4.95;;;;;;;;;;5027055;28;20214;-63
2023/07/31 12:44:02;;;;;;;5.07;4.78;;;;;;;;;;5027609;28;20231;-64
2023/07/31 12:46:29;;;;;;;5.90;5.60;;;;;;;;;;5026736;28;20231;-64
2023/07/31 12:48:57;;;;;;;5.40;5.10;;;;;;;;;;5027979;28;20211;-64
2023/07/31 12:51:23;;;;;;;5.72;5.43;;;;;;;;;;5028477;28;20231;-64
2023/07/31 12:53:50;;;;;;;6.18;5.05;;;;;;;;;;5029043;28;20207;-65
2023/07/31 12:56:17;;;;;;;5.72;5.32;;;;;;;;;;5027753;28;20204;-65
2023/07/31 12:58:43;;;;;;;5.53;5.22;;;;;;;;;;5029569;28;20261;-64
2023/07/31 13:01:10;;;;;;;5.63;5.28;;;;;;;;;;5029247;28;20203;-64
2023/07/31 13:03:36;;;;;;;9.55;5.18;;;;;;;;;;5028671;28;20293;-66
2023/07/31 13:06:05;;;;;;;5.95;5.43;;;;;;;;;;5027740;28;20251;-65
2023/07/31 13:08:31;;;;;;;5.78;5.38;;;;;;;;;;5028770;28;20258;-64
2023/07/31 13:10:58;;;;;;;5.30;5.00;;;;;;;;;;5028870;28;20200;-65
2023/07/31 13:13:24;;;;;;;5.95;5.30;;;;;;;;;;5028928;28;20200;-65
2023/07/31 13:15:51;;;;;;;5.10;4.80;;;;;;;;;;5027102;28;20199;-63
2023/07/31 13:18:17;;;;;;;5.18;4.88;;;;;;;;;;5028235;28;20208;-64
2023/07/31 13:20:44;;;;;;;5.32;4.63;;;;;;;;;;5028379;28;20223;-67
2023/07/31 13:23:11;;;;;;;4.70;4.43;;;;;;;;;;5028587;28;20379;-62
2023/07/31 13:25:38;;;;;;;4.68;4.28;;;;;;;;;;5028120;28;20223;-65
2023/07/31 13:28:04;;;;;;;4.30;4.00;;;;;;;;;;5028346;28;20196;-64
2023/07/31 13:30:31;;;;;;;4.25;4.03;;;;;;;;;;5028291;28;20231;-64
2023/07/31 13:32:57;;;;;;;4.07;3.88;;;;;;;;;;5028002;28;20239;-64
2023/07/31 13:35:23;;;;;;;4.22;4.03;;;;;;;;;;5027835;28;20211;-65
2023/07/31 13:37:50;;;;;;;4.45;4.05;;;;;;;;;;5028111;28;20223;-64
2023/07/31 13:40:18;;;;;;;4.63;3.90;;;;;;;;;;5028132;28;20266;-64
2023/07/31 13:42:44;;;;;;;4.70;4.40;;;;;;;;;;5027844;28;20231;-65
2023/07/31 13:45:10;;;;;;;4.70;4.30;;;;;;;;;;5027207;28;20199;-64
2023/07/31 13:47:37;;;;;;;4.22;3.70;;;;;;;;;;5027929;28;20259;-65
2023/07/31 13:50:04;;;;;;;3.65;3.55;;;;;;;;;;5028018;28;20285;-63
2023/07/31 13:52:31;;;;;;;4.13;3.92;;;;;;;;;;5027744;28;20729;-64
2023/07/31 13:54:57;;;;;;;3.70;3.42;;;;;;;;;;5027670;28;20751;-64
2023/07/31 13:57:25;;;;;;;4.43;4.22;;;;;;;;;;5027391;28;20674;-65
2023/07/31 13:59:51;;;;;;;3.83;3.63;;;;;;;;;;5027268;28;20678;-65
2023/07/31 14:02:18;;;;;;;3.72;3.53;;;;;;;;;;5027683;28;20243;-64
2023/07/31 14:04:44;;;;;;;6.78;4.10;;;;;;;;;;5027436;28;20293;-65
2023/07/31 14:07:10;;;;;;;3.80;3.60;;;;;;;;;;5027668;28;20289;-64
2023/07/31 14:09:37;;;;;;;4.25;4.05;;;;;;;;;;5027794;28;20204;-65
2023/07/31 14:12:04;;;;;;;4.22;4.03;;;;;;;;;;5027484;28;20195;-64
2023/07/31 14:14:33;;;;;;;4.85;4.40;;;;;;;;;;5025092;28;20751;-64
2023/07/31 14:17:00;;;;;;;4.82;4.22;;;;;;;;;;5025574;28;20199;-63
2023/07/31 14:19:26;;;;;;;5.00;3.90;;;;;;;;;;5025660;28;20212;-64
2023/07/31 14:21:53;;;;;;;4.28;3.88;;;;;;;;;;5025050;28;20658;-64
2023/07/31 14:24:19;;;;;;;4.05;3.80;;;;;;;;;;5024568;28;20235;-63
2023/07/31 14:26:46;;;;;;;5.57;3.78;;;;;;;;;;5025300;28;20895;-64
2023/07/31 14:29:12;;;;;;;6.15;4.60;;;;;;;;;;5025128;28;20234;-64
2023/07/31 14:31:40;;;;;;;4.00;3.80;;;;;;;;;;5025050;28;20211;-64
2023/07/31 14:34:06;;;;;;;4.03;3.75;;;;;;;;;;5025358;28;20265;-65